createdAt,value
2017-10-27T00:02:14.175Z,14.00
2017-10-27T00:04:40.382Z,14.17
2017-10-27T00:07:06.566Z,13.90
2017-10-27T00:09:32.769Z,14.87
2017-10-27T00:15:02.019Z,14.67
2017-10-27T00:17:28.261Z,14.30
2017-10-27T00:19:54.379Z,15.40
2017-10-27T00:22:20.551Z,14.70
2017-10-27T00:24:46.706Z,14.30
2017-10-27T00:27:13.631Z,14.83
2017-10-27T00:29:39.802Z,15.13
2017-10-27T00:32:05.992Z,14.87
2017-10-27T00:34:32.977Z,15.90
2017-10-27T00:36:59.134Z,16.00
2017-10-27T00:39:25.341Z,16.03
2017-10-27T00:41:51.505Z,15.87
2017-10-27T00:44:17.671Z,14.53
2017-10-27T00:46:43.841Z,15.17
2017-10-27T00:49:09.975Z,13.83
2017-10-27T00:51:36.171Z,15.77
2017-10-27T00:54:02.373Z,15.00
2017-10-27T00:56:28.583Z,15.60
2017-10-27T00:58:55.517Z,14.93
2017-10-27T01:01:21.770Z,14.80
2017-10-27T01:03:47.965Z,14.37
2017-10-27T01:06:14.154Z,14.60
2017-10-27T01:08:40.765Z,15.33
2017-10-27T01:11:06.999Z,15.93
2017-10-27T01:13:33.252Z,13.47
2017-10-27T01:15:59.500Z,13.87
2017-10-27T01:18:25.693Z,13.60
2017-10-27T01:20:51.900Z,14.60
2017-10-27T01:23:18.834Z,11.83
2017-10-27T01:25:45.789Z,12.00
2017-10-27T01:28:12.750Z,10.80
2017-10-27T01:30:39.019Z,10.30
2017-10-27T01:33:05.206Z,12.17
2017-10-27T01:35:31.390Z,11.53
2017-10-27T01:37:57.546Z,11.00
2017-10-27T01:40:24.454Z,12.10
2017-10-27T01:42:50.644Z,11.17
2017-10-27T01:45:16.920Z,11.27
2017-10-27T01:47:43.134Z,11.30
2017-10-27T01:50:09.374Z,12.37
2017-10-27T01:52:35.608Z,13.00
2017-10-27T01:55:01.850Z,13.80
2017-10-27T01:57:28.829Z,13.13
2017-10-27T01:59:55.054Z,14.67
2017-10-27T02:02:21.210Z,14.57
2017-10-27T02:04:47.433Z,14.27
2017-10-27T02:07:13.657Z,13.07
2017-10-27T02:09:39.883Z,14.77
2017-10-27T02:12:06.083Z,15.73
2017-10-27T02:14:32.315Z,15.70
2017-10-27T02:16:58.600Z,17.30
2017-10-27T02:19:24.797Z,16.13
2017-10-27T02:21:51.030Z,16.80
2017-10-27T02:24:17.298Z,16.80
2017-10-27T02:26:44.311Z,14.20
2017-10-27T02:29:10.528Z,14.97
2017-10-27T02:31:36.742Z,14.80
2017-10-27T02:34:02.930Z,14.13
2017-10-27T02:36:29.152Z,12.67
2017-10-27T02:38:55.350Z,14.00
2017-10-27T02:41:21.564Z,13.80
2017-10-27T02:43:47.709Z,14.57
2017-10-27T02:46:13.906Z,14.93
2017-10-27T02:48:40.143Z,15.87
2017-10-27T02:51:06.346Z,14.50
2017-10-27T02:53:32.465Z,15.40
2017-10-27T02:55:59.445Z,14.57
2017-10-27T02:58:25.696Z,15.03
2017-10-27T03:00:51.862Z,15.60
2017-10-27T03:03:18.818Z,14.60
2017-10-27T03:05:46.410Z,14.17
2017-10-27T03:08:12.577Z,13.97
2017-10-27T03:10:38.813Z,14.70
2017-10-27T03:13:05.035Z,15.40
2017-10-27T03:15:31.301Z,14.80
2017-10-27T03:17:57.484Z,15.40
2017-10-27T03:20:23.622Z,15.63
2017-10-27T03:22:49.825Z,15.20
2017-10-27T03:25:16.026Z,16.07
2017-10-27T03:27:42.227Z,16.50
2017-10-27T03:30:09.139Z,16.37
2017-10-27T03:32:35.364Z,16.17
2017-10-27T03:35:01.629Z,17.20
2017-10-27T03:37:27.826Z,17.47
2017-10-27T03:39:54.017Z,17.60
2017-10-27T03:42:20.185Z,17.60
2017-10-27T03:44:53.249Z,17.20
2017-10-27T03:47:19.444Z,17.97
2017-10-27T03:49:45.630Z,17.53
2017-10-27T03:52:12.536Z,18.00
2017-10-27T03:54:38.744Z,18.27
2017-10-27T03:57:04.894Z,18.70
2017-10-27T03:59:31.095Z,18.60
2017-10-27T04:01:57.336Z,19.23
2017-10-27T04:04:23.505Z,19.37
2017-10-27T04:06:49.732Z,18.87
2017-10-27T04:09:15.884Z,21.30
2017-10-27T04:11:42.844Z,21.20
2017-10-27T04:14:09.063Z,21.50
2017-10-27T04:16:35.983Z,21.40
2017-10-27T04:19:02.133Z,22.20
2017-10-27T04:21:29.077Z,22.23
2017-10-27T04:23:56.004Z,22.90
2017-10-27T04:26:22.197Z,22.80
2017-10-27T04:28:48.427Z,21.23
2017-10-27T04:31:14.669Z,22.93
2017-10-27T04:33:40.886Z,22.87
2017-10-27T04:36:07.065Z,23.83
2017-10-27T04:38:33.977Z,22.57
2017-10-27T04:41:00.195Z,23.60
2017-10-27T04:43:33.853Z,25.37
2017-10-27T04:46:00.048Z,17.50
2017-10-27T04:48:26.196Z,14.87
2017-10-27T04:50:53.088Z,13.57
2017-10-27T04:53:19.265Z,12.53
2017-10-27T04:55:46.187Z,14.67
2017-10-27T04:58:12.403Z,13.63
2017-10-27T05:00:38.609Z,15.00
2017-10-27T05:03:04.828Z,15.60
2017-10-27T05:05:31.020Z,14.50
2017-10-27T05:07:58.013Z,12.23
2017-10-27T05:10:24.213Z,12.30
2017-10-27T05:12:50.441Z,12.57
2017-10-27T05:15:16.620Z,12.57
2017-10-27T05:17:48.927Z,12.10
2017-10-27T05:20:22.085Z,12.30
2017-10-27T05:22:54.343Z,12.63
2017-10-27T05:25:20.534Z,13.33
2017-10-27T05:27:46.728Z,13.47
2017-10-27T05:30:13.605Z,13.00
2017-10-27T05:32:39.812Z,12.90
2017-10-27T05:35:05.997Z,13.10
2017-10-27T05:37:32.157Z,13.37
2017-10-27T05:39:59.092Z,13.20
2017-10-27T05:42:25.298Z,13.30
2017-10-27T05:44:51.523Z,14.00
2017-10-27T05:47:17.710Z,13.43
2017-10-27T05:49:43.907Z,14.20
2017-10-27T05:52:10.917Z,12.30
2017-10-27T05:54:37.140Z,11.10
2017-10-27T05:57:03.369Z,11.10
2017-10-27T05:59:29.522Z,12.13
2017-10-27T06:01:55.739Z,10.27
2017-10-27T06:04:21.976Z,10.87
2017-10-27T06:06:48.190Z,10.90
2017-10-27T06:09:14.397Z,9.73
2017-10-27T06:11:40.545Z,9.87
2017-10-27T06:14:06.735Z,8.90
2017-10-27T06:16:32.957Z,8.10
2017-10-27T06:18:59.093Z,8.90
2017-10-27T06:21:25.333Z,7.20
2017-10-27T06:23:51.517Z,8.80
2017-10-27T06:26:18.429Z,7.97
2017-10-27T06:28:44.647Z,6.83
2017-10-27T06:31:10.878Z,6.20
2017-10-27T06:33:37.036Z,4.80
2017-10-27T06:36:03.162Z,5.53
2017-10-27T06:38:29.388Z,6.03
2017-10-27T06:40:55.564Z,4.60
2017-10-27T06:43:21.768Z,5.40
2017-10-27T06:45:47.992Z,5.60
2017-10-27T06:48:14.855Z,5.30
2017-10-27T06:50:41.064Z,5.10
2017-10-27T06:53:08.056Z,5.70
2017-10-27T06:55:34.241Z,5.33
2017-10-27T06:58:01.301Z,5.00
2017-10-27T07:00:27.509Z,5.00
2017-10-27T07:02:54.544Z,4.63
2017-10-27T07:05:20.766Z,4.50
2017-10-27T07:07:46.985Z,3.77
2017-10-27T07:10:13.396Z,3.73
2017-10-27T07:12:39.609Z,3.20
2017-10-27T07:15:05.884Z,3.33
2017-10-27T07:17:32.099Z,3.87
2017-10-27T07:19:58.314Z,3.00
2017-10-27T07:22:24.521Z,3.07
2017-10-27T07:24:50.712Z,3.00
2017-10-27T07:27:17.674Z,2.53
2017-10-27T07:29:44.581Z,2.00
2017-10-27T07:32:10.772Z,2.47
2017-10-27T07:34:36.944Z,1.53
2017-10-27T07:37:03.125Z,2.13
2017-10-27T07:39:29.336Z,2.00
2017-10-27T07:41:55.483Z,2.20
2017-10-27T07:44:22.097Z,1.87
2017-10-27T07:46:48.319Z,2.63
2017-10-27T07:49:14.559Z,2.23
2017-10-27T07:51:40.749Z,2.03
2017-10-27T07:54:06.973Z,2.23
2017-10-27T07:56:33.163Z,1.97
2017-10-27T07:58:59.380Z,1.90
2017-10-27T08:01:25.584Z,2.50
2017-10-27T08:03:51.837Z,1.30
2017-10-27T08:06:18.032Z,1.77
2017-10-27T08:08:44.925Z,2.57
2017-10-27T08:11:11.131Z,1.60
2017-10-27T08:13:37.327Z,1.73
2017-10-27T08:16:04.249Z,1.53
2017-10-27T08:18:30.495Z,1.33
2017-10-27T08:20:57.441Z,1.70
2017-10-27T08:23:23.604Z,2.10
2017-10-27T08:25:49.784Z,2.00
2017-10-27T08:28:15.999Z,1.73
2017-10-27T08:30:42.248Z,1.70
2017-10-27T08:33:09.186Z,2.00
2017-10-27T08:35:35.395Z,5.60
2017-10-27T08:38:01.631Z,2.73
2017-10-27T08:40:27.786Z,2.73
2017-10-27T08:42:53.965Z,2.00
2017-10-27T08:45:20.188Z,2.40
2017-10-27T08:47:46.401Z,2.80
2017-10-27T08:50:12.627Z,2.50
2017-10-27T08:52:38.825Z,2.90
2017-10-27T08:55:05.828Z,3.33
2017-10-27T08:57:32.022Z,2.70
2017-10-27T08:59:58.232Z,2.17
2017-10-27T09:02:25.173Z,2.80
2017-10-27T09:04:52.132Z,2.70
2017-10-27T09:07:19.118Z,2.67
2017-10-27T09:09:45.355Z,2.10
2017-10-27T09:12:11.540Z,2.50
2017-10-27T09:14:37.785Z,2.40
2017-10-27T09:17:04.010Z,2.40
2017-10-27T09:19:30.205Z,2.37
2017-10-27T09:21:57.184Z,2.90
2017-10-27T09:24:23.381Z,2.40
2017-10-27T09:26:50.289Z,2.23
2017-10-27T09:29:16.468Z,2.50
2017-10-27T09:31:43.391Z,2.50
2017-10-27T09:34:10.326Z,2.10
2017-10-27T09:36:36.599Z,2.23
2017-10-27T09:39:02.872Z,3.20
2017-10-27T09:41:29.153Z,2.07
2017-10-27T09:43:55.432Z,2.50
2017-10-27T09:46:21.630Z,2.70
2017-10-27T09:48:47.836Z,2.17
2017-10-27T09:51:14.063Z,2.00
2017-10-27T09:53:40.293Z,2.60
2017-10-27T09:56:06.504Z,2.37
2017-10-27T09:58:33.420Z,1.80
2017-10-27T10:01:00.447Z,1.97
2017-10-27T10:03:26.696Z,2.00
2017-10-27T10:05:52.883Z,2.17
2017-10-27T10:08:19.096Z,2.10
2017-10-27T10:10:46.000Z,2.10
2017-10-27T10:13:12.275Z,2.20
2017-10-27T10:15:38.501Z,1.60
2017-10-27T10:18:05.459Z,2.23
2017-10-27T10:20:31.692Z,3.60
2017-10-27T10:22:57.874Z,4.47
2017-10-27T10:25:24.047Z,4.83
2017-10-27T10:27:50.264Z,4.30
2017-10-27T10:30:16.527Z,4.30
2017-10-27T10:32:42.764Z,3.30
2017-10-27T10:35:09.000Z,2.57
2017-10-27T10:37:35.210Z,2.90
2017-10-27T10:40:01.467Z,3.00
2017-10-27T10:42:27.644Z,2.10
2017-10-27T10:44:54.158Z,2.07
2017-10-27T10:47:20.392Z,1.17
2017-10-27T10:49:46.611Z,1.40
2017-10-27T10:52:13.502Z,1.53
2017-10-27T10:54:39.707Z,1.30
2017-10-27T10:57:05.922Z,1.67
2017-10-27T10:59:32.136Z,1.80
2017-10-27T11:01:59.098Z,1.80
2017-10-27T11:04:25.292Z,1.90
2017-10-27T11:06:52.252Z,1.13
2017-10-27T11:09:19.264Z,1.40
2017-10-27T11:11:45.479Z,1.30
2017-10-27T11:14:11.676Z,1.00
2017-10-27T11:16:37.898Z,1.60
2017-10-27T11:19:04.031Z,0.90
2017-10-27T11:21:30.227Z,1.20
2017-10-27T11:23:57.154Z,1.30
2017-10-27T11:26:23.439Z,1.70
2017-10-27T11:28:49.665Z,1.70
2017-10-27T11:31:15.916Z,1.53
2017-10-27T11:33:42.128Z,1.23
2017-10-27T11:36:08.381Z,1.00
2017-10-27T11:38:34.655Z,1.00
2017-10-27T11:41:01.573Z,1.00
2017-10-27T11:43:27.748Z,1.00
2017-10-27T11:45:53.929Z,1.10
2017-10-27T11:48:20.121Z,1.10
2017-10-27T11:50:46.323Z,1.27
2017-10-27T11:53:12.513Z,1.10
2017-10-27T11:55:38.728Z,1.07
2017-10-27T11:58:04.926Z,1.40
2017-10-27T12:00:31.117Z,1.00
2017-10-27T12:02:58.097Z,1.17
2017-10-27T12:05:24.344Z,1.03
2017-10-27T12:07:50.512Z,1.10
2017-10-27T12:10:16.693Z,1.40
2017-10-27T12:12:42.949Z,1.20
2017-10-27T12:15:09.167Z,1.47
2017-10-27T12:17:35.428Z,1.53
2017-10-27T12:20:02.373Z,1.23
2017-10-27T12:22:29.314Z,1.47
2017-10-27T12:24:55.513Z,1.30
2017-10-27T12:27:21.728Z,1.00
2017-10-27T12:29:47.953Z,2.40
2017-10-27T12:32:14.129Z,1.10
2017-10-27T12:34:40.378Z,1.40
2017-10-27T12:37:07.350Z,1.40
2017-10-27T12:39:33.592Z,1.30
2017-10-27T12:41:59.865Z,1.30
2017-10-27T12:44:26.841Z,0.90
2017-10-27T12:46:53.065Z,1.20
2017-10-27T12:49:19.304Z,1.20
2017-10-27T12:51:45.485Z,1.30
2017-10-27T12:54:11.670Z,1.07
2017-10-27T12:56:37.890Z,1.50
2017-10-27T12:59:04.105Z,1.10
2017-10-27T13:01:30.305Z,1.20
2017-10-27T13:03:57.260Z,1.20
2017-10-27T13:06:24.160Z,1.20
2017-10-27T13:08:50.384Z,1.10
2017-10-27T13:11:16.639Z,1.13
2017-10-27T13:13:42.884Z,1.10
2017-10-27T13:16:09.893Z,1.03
2017-10-27T13:18:36.133Z,1.10
2017-10-27T13:21:02.357Z,0.90
2017-10-27T13:23:28.593Z,1.10
2017-10-27T13:25:54.768Z,1.07
2017-10-27T13:28:21.005Z,1.00
2017-10-27T13:30:47.170Z,1.07
2017-10-27T13:33:13.453Z,0.90
2017-10-27T13:35:39.699Z,1.10
2017-10-27T13:38:05.941Z,1.13
2017-10-27T13:40:32.245Z,1.17
2017-10-27T13:42:58.432Z,1.20
2017-10-27T13:45:24.695Z,1.03
2017-10-27T13:47:50.897Z,1.00
2017-10-27T13:50:25.037Z,1.00
2017-10-27T13:52:51.293Z,0.97
2017-10-27T13:55:17.454Z,0.93
2017-10-27T13:57:43.721Z,1.00
2017-10-27T14:00:09.900Z,1.17
2017-10-27T14:02:36.138Z,0.97
2017-10-27T14:05:02.397Z,1.83
2017-10-27T14:07:28.609Z,0.90
2017-10-27T14:09:55.608Z,1.00
2017-10-27T14:12:21.856Z,1.43
2017-10-27T14:14:48.895Z,1.40
2017-10-27T14:17:15.167Z,1.13
2017-10-27T14:19:42.078Z,1.20
2017-10-27T14:22:08.298Z,1.20
2017-10-27T14:24:34.469Z,0.90
2017-10-27T14:27:01.375Z,1.00
2017-10-27T14:29:27.597Z,1.00
2017-10-27T14:31:53.833Z,1.30
2017-10-27T14:34:20.005Z,0.93
2017-10-27T14:36:46.261Z,1.20
2017-10-27T14:39:12.520Z,1.37
2017-10-27T14:41:38.796Z,2.20
2017-10-27T14:44:04.927Z,1.00
2017-10-27T14:46:31.093Z,1.20
2017-10-27T14:48:57.312Z,1.37
2017-10-27T14:51:23.526Z,1.03
2017-10-27T14:53:49.776Z,1.10
2017-10-27T14:56:15.983Z,1.40
2017-10-27T14:58:42.181Z,1.50
2017-10-27T15:01:09.181Z,1.13
2017-10-27T15:03:35.389Z,1.00
2017-10-27T15:06:01.573Z,1.40
2017-10-27T15:08:28.481Z,1.30
2017-10-27T15:10:54.668Z,1.10
2017-10-27T15:13:20.898Z,1.27
2017-10-27T15:15:47.080Z,1.40
2017-10-27T15:18:13.285Z,1.40
2017-10-27T15:20:39.527Z,1.73
2017-10-27T15:23:05.717Z,1.00
2017-10-27T15:25:31.893Z,1.17
2017-10-27T15:27:58.125Z,1.23
2017-10-27T15:30:24.363Z,1.17
2017-10-27T15:32:51.305Z,1.00
2017-10-27T15:35:18.313Z,1.30
2017-10-27T15:37:44.512Z,1.10
2017-10-27T15:40:10.732Z,1.00
2017-10-27T15:42:36.951Z,1.20
2017-10-27T15:45:03.928Z,0.93
2017-10-27T15:47:30.102Z,0.80
2017-10-27T15:49:56.317Z,1.43
2017-10-27T15:52:22.576Z,1.20
2017-10-27T15:54:49.545Z,1.10
2017-10-27T15:57:15.729Z,1.73
2017-10-27T15:59:41.908Z,1.20
2017-10-27T16:02:08.087Z,1.40
2017-10-27T16:04:34.213Z,1.73
2017-10-27T16:07:00.407Z,1.10
2017-10-27T16:09:26.587Z,1.00
2017-10-27T16:11:53.462Z,1.30
2017-10-27T16:14:19.625Z,1.80
2017-10-27T16:16:45.801Z,1.60
2017-10-27T16:19:12.089Z,1.60
2017-10-27T16:21:38.293Z,1.77
2017-10-27T16:24:04.532Z,1.50
2017-10-27T16:26:30.721Z,1.27
2017-10-27T16:28:56.869Z,1.30
2017-10-27T16:31:23.066Z,1.10
2017-10-27T16:33:49.229Z,1.50
2017-10-27T16:36:15.394Z,1.63
2017-10-27T16:38:41.549Z,1.97
2017-10-27T16:41:07.673Z,1.33
2017-10-27T16:43:34.657Z,1.50
2017-10-27T16:46:00.923Z,1.53
2017-10-27T16:48:27.790Z,1.80
2017-10-27T16:50:54.701Z,2.00
2017-10-27T16:53:20.923Z,2.83
2017-10-27T16:55:47.094Z,1.77
2017-10-27T16:58:13.308Z,1.40
2017-10-27T17:00:40.288Z,1.70
2017-10-27T17:03:06.584Z,1.67
2017-10-27T17:05:40.480Z,1.80
2017-10-27T17:08:07.426Z,1.67
2017-10-27T17:10:33.597Z,1.50
2017-10-27T17:12:59.794Z,3.20
2017-10-27T17:15:26.041Z,19.17
2017-10-27T17:17:52.236Z,12.30
2017-10-27T17:20:19.213Z,9.20
2017-10-27T17:22:45.501Z,7.73
2017-10-27T17:25:11.711Z,4.00
2017-10-27T17:27:37.923Z,1.60
2017-10-27T17:30:04.157Z,1.53
2017-10-27T17:32:30.359Z,1.73
2017-10-27T17:34:56.559Z,1.80
2017-10-27T17:37:23.595Z,2.20
2017-10-27T17:39:49.889Z,1.90
2017-10-27T17:42:16.070Z,1.50
2017-10-27T17:44:42.993Z,1.80
2017-10-27T17:47:09.140Z,2.90
2017-10-27T17:49:36.038Z,1.40
2017-10-27T17:52:02.188Z,1.70
2017-10-27T17:54:28.423Z,1.67
2017-10-27T17:56:55.357Z,1.67
2017-10-27T17:59:21.602Z,1.57
2017-10-27T18:01:47.782Z,1.80
2017-10-27T18:04:13.981Z,1.70
2017-10-27T18:06:40.118Z,1.97
2017-10-27T18:09:06.332Z,3.90
2017-10-27T18:11:32.561Z,1.60
2017-10-27T18:13:58.864Z,2.00
2017-10-27T18:16:25.084Z,2.00
2017-10-27T18:18:51.343Z,1.80
2017-10-27T18:21:18.299Z,1.57
2017-10-27T18:23:44.535Z,2.40
2017-10-27T18:26:10.741Z,2.10
2017-10-27T18:28:37.782Z,2.13
2017-10-27T18:31:04.754Z,2.30
2017-10-27T18:33:30.977Z,2.23
2017-10-27T18:35:57.224Z,1.70
2017-10-27T18:38:23.464Z,1.63
2017-10-27T18:40:49.697Z,1.50
2017-10-27T18:43:15.922Z,1.90
2017-10-27T18:45:42.239Z,1.53
2017-10-27T18:48:08.455Z,1.63
2017-10-27T18:50:34.651Z,2.37
2017-10-27T18:53:01.560Z,1.73
2017-10-27T18:55:27.769Z,2.00
2017-10-27T18:57:53.973Z,1.20
2017-10-27T19:00:20.181Z,1.40
2017-10-27T19:02:47.087Z,1.87
2017-10-27T19:05:13.295Z,1.50
2017-10-27T19:07:39.528Z,1.90
2017-10-27T19:10:05.738Z,1.97
2017-10-27T19:12:31.984Z,1.40
2017-10-27T19:14:58.185Z,2.20
2017-10-27T19:17:24.372Z,1.70
2017-10-27T19:19:50.528Z,1.60
2017-10-27T19:22:17.456Z,1.90
2017-10-27T19:24:43.716Z,1.80
2017-10-27T19:27:09.968Z,1.67
2017-10-27T19:29:36.166Z,1.67
2017-10-27T19:32:03.090Z,1.60
2017-10-27T19:34:29.356Z,1.90
2017-10-27T19:36:55.527Z,2.13
2017-10-27T19:39:21.699Z,1.80
2017-10-27T19:41:48.626Z,1.60
2017-10-27T19:44:15.598Z,1.57
2017-10-27T19:46:41.820Z,1.50
2017-10-27T19:49:08.034Z,2.23
2017-10-27T19:51:34.974Z,1.40
2017-10-27T19:54:01.952Z,1.57
2017-10-27T19:56:28.159Z,1.80
2017-10-27T19:58:55.077Z,1.80
2017-10-27T20:01:21.347Z,1.80
2017-10-27T20:03:47.563Z,2.30
2017-10-27T20:06:13.730Z,1.80
2017-10-27T20:08:39.913Z,1.83
2017-10-27T20:11:06.796Z,1.87
2017-10-27T20:13:32.958Z,2.03
2017-10-27T20:15:59.146Z,2.47
2017-10-27T20:18:25.369Z,2.10
2017-10-27T20:20:51.608Z,1.20
2017-10-27T20:23:17.793Z,1.70
2017-10-27T20:25:44.736Z,2.20
2017-10-27T20:28:11.699Z,1.73
2017-10-27T20:30:37.889Z,1.67
2017-10-27T20:33:04.109Z,1.40
2017-10-27T20:35:30.322Z,1.80
2017-10-27T20:37:56.496Z,2.40
2017-10-27T20:40:23.463Z,2.23
2017-10-27T20:42:49.728Z,2.17
2017-10-27T20:45:15.918Z,1.90
2017-10-27T20:47:42.161Z,1.83
2017-10-27T20:50:08.369Z,1.90
2017-10-27T20:52:34.604Z,2.20
2017-10-27T20:55:00.797Z,2.07
2017-10-27T20:57:27.712Z,1.80
2017-10-27T20:59:53.936Z,1.90
2017-10-27T21:02:20.131Z,2.50
2017-10-27T21:04:46.323Z,2.47
2017-10-27T21:07:12.517Z,1.90
2017-10-27T21:09:38.747Z,2.70
2017-10-27T21:12:04.993Z,2.13
2017-10-27T21:14:31.197Z,2.13
2017-10-27T21:16:57.417Z,2.50
2017-10-27T21:19:23.635Z,1.93
2017-10-27T21:21:49.816Z,2.00
2017-10-27T21:24:15.992Z,2.30
2017-10-27T21:26:42.201Z,2.50
2017-10-27T21:29:09.128Z,2.60
2017-10-27T21:31:36.081Z,2.27
2017-10-27T21:34:03.047Z,2.37
2017-10-27T21:36:29.222Z,2.53
2017-10-27T21:38:55.378Z,2.57
2017-10-27T21:41:22.273Z,3.23
2017-10-27T21:43:48.551Z,2.30
2017-10-27T21:46:15.450Z,2.90
2017-10-27T21:48:41.605Z,2.73
2017-10-27T21:51:07.797Z,2.83
2017-10-27T21:53:34.011Z,2.90
2017-10-27T21:56:00.198Z,3.50
2017-10-27T21:58:27.120Z,3.30
2017-10-27T22:00:53.364Z,3.57
2017-10-27T22:03:20.307Z,3.23
2017-10-27T22:05:46.486Z,3.70
2017-10-27T22:08:12.676Z,3.23
2017-10-27T22:10:39.676Z,3.03
2017-10-27T22:13:05.875Z,3.40
2017-10-27T22:15:32.107Z,4.57
2017-10-27T22:17:58.317Z,3.40
2017-10-27T22:20:24.556Z,4.57
2017-10-27T22:22:50.709Z,3.60
2017-10-27T22:25:16.836Z,4.20
2017-10-27T22:27:43.014Z,5.00
2017-10-27T22:30:09.923Z,4.17
2017-10-27T22:32:36.097Z,4.03
2017-10-27T22:35:03.005Z,4.07
2017-10-27T22:37:29.873Z,4.30
2017-10-27T22:39:56.824Z,4.30
2017-10-27T22:42:23.729Z,4.60
2017-10-27T22:44:49.953Z,4.40
2017-10-27T22:47:16.153Z,5.57
2017-10-27T22:49:42.337Z,4.73
2017-10-27T22:52:08.551Z,6.13
2017-10-27T22:54:34.746Z,5.23
2017-10-27T22:57:00.924Z,5.30
2017-10-27T22:59:27.790Z,5.47
2017-10-27T23:01:53.997Z,5.60
2017-10-27T23:04:20.990Z,6.10
2017-10-27T23:06:47.165Z,6.70
2017-10-27T23:09:13.368Z,5.93
2017-10-27T23:11:39.539Z,6.17
2017-10-27T23:14:06.463Z,5.97
2017-10-27T23:16:33.415Z,6.53
2017-10-27T23:19:00.355Z,6.73
2017-10-27T23:21:27.289Z,7.07
2017-10-27T23:23:53.460Z,8.20
2017-10-27T23:26:19.612Z,7.23
2017-10-27T23:28:45.745Z,7.27
2017-10-27T23:31:11.944Z,6.53
2017-10-27T23:33:38.081Z,7.60
2017-10-27T23:36:04.256Z,7.97
2017-10-27T23:38:30.440Z,7.50
2017-10-27T23:40:56.626Z,7.30
2017-10-27T23:43:23.520Z,8.87
2017-10-27T23:45:49.665Z,8.57
2017-10-27T23:48:15.865Z,7.70
2017-10-27T23:50:41.997Z,7.60
2017-10-27T23:53:08.188Z,8.10
2017-10-27T23:55:35.157Z,8.13
2017-10-27T23:58:01.397Z,9.63
